sensor_id;sensor_type;location;lat;lon;timestamp;P1;durP1;ratioP1;P2;durP2;ratioP2
10947;SDS011;5526;42.070;24.752;2022-10-16T00:01:15;5.55;;;5.13;;
10947;SDS011;5526;42.070;24.752;2022-10-16T00:03:45;6.22;;;5.72;;
10947;SDS011;5526;42.070;24.752;2022-10-16T00:06:16;5.93;;;5.32;;
10947;SDS011;5526;42.070;24.752;2022-10-16T00:08:45;9.40;;;6.25;;
10947;SDS011;5526;42.070;24.752;2022-10-16T00:11:17;6.53;;;5.53;;
10947;SDS011;5526;42.070;24.752;2022-10-16T00:13:46;6.60;;;5.65;;
10947;SDS011;5526;42.070;24.752;2022-10-16T00:16:16;7.72;;;5.55;;
10947;SDS011;5526;42.070;24.752;2022-10-16T00:18:44;6.55;;;5.82;;
10947;SDS011;5526;42.070;24.752;2022-10-16T00:21:12;7.32;;;6.13;;
10947;SDS011;5526;42.070;24.752;2022-10-16T00:23:43;6.45;;;5.95;;
10947;SDS011;5526;42.070;24.752;2022-10-16T00:26:12;6.68;;;6.07;;
10947;SDS011;5526;42.070;24.752;2022-10-16T00:28:42;7.43;;;6.13;;
10947;SDS011;5526;42.070;24.752;2022-10-16T00:31:12;9.20;;;6.07;;
10947;SDS011;5526;42.070;24.752;2022-10-16T00:33:40;6.97;;;6.28;;
10947;SDS011;5526;42.070;24.752;2022-10-16T00:36:09;8.38;;;7.38;;
10947;SDS011;5526;42.070;24.752;2022-10-16T00:38:40;7.00;;;6.30;;
10947;SDS011;5526;42.070;24.752;2022-10-16T00:41:09;8.30;;;5.82;;
10947;SDS011;5526;42.070;24.752;2022-10-16T00:43:40;6.88;;;6.20;;
10947;SDS011;5526;42.070;24.752;2022-10-16T00:46:10;8.63;;;6.00;;
10947;SDS011;5526;42.070;24.752;2022-10-16T00:48:44;6.55;;;5.43;;
10947;SDS011;5526;42.070;24.752;2022-10-16T00:51:15;6.68;;;6.05;;
10947;SDS011;5526;42.070;24.752;2022-10-16T00:53:47;5.88;;;5.38;;
10947;SDS011;5526;42.070;24.752;2022-10-16T00:56:16;6.40;;;5.90;;
10947;SDS011;5526;42.070;24.752;2022-10-16T00:58:43;6.60;;;5.65;;
10947;SDS011;5526;42.070;24.752;2022-10-16T01:01:11;6.63;;;5.40;;
10947;SDS011;5526;42.070;24.752;2022-10-16T01:03:39;6.10;;;5.50;;
10947;SDS011;5526;42.070;24.752;2022-10-16T01:06:09;5.55;;;5.05;;
10947;SDS011;5526;42.070;24.752;2022-10-16T01:08:49;5.57;;;5.18;;
10947;SDS011;5526;42.070;24.752;2022-10-16T01:11:27;6.15;;;5.55;;
10947;SDS011;5526;42.070;24.752;2022-10-16T01:14:02;6.35;;;5.85;;
10947;SDS011;5526;42.070;24.752;2022-10-16T01:16:37;6.55;;;5.85;;
10947;SDS011;5526;42.070;24.752;2022-10-16T01:19:12;6.70;;;5.97;;
10947;SDS011;5526;42.070;24.752;2022-10-16T01:21:45;6.95;;;6.28;;
10947;SDS011;5526;42.070;24.752;2022-10-16T01:24:17;7.32;;;6.65;;
10947;SDS011;5526;42.070;24.752;2022-10-16T01:27:17;6.53;;;5.95;;
10947;SDS011;5526;42.070;24.752;2022-10-16T01:29:50;6.40;;;5.78;;
10947;SDS011;5526;42.070;24.752;2022-10-16T01:32:23;6.68;;;6.00;;
10947;SDS011;5526;42.070;24.752;2022-10-16T01:34:58;6.47;;;5.65;;
10947;SDS011;5526;42.070;24.752;2022-10-16T01:37:32;7.28;;;6.57;;
10947;SDS011;5526;42.070;24.752;2022-10-16T01:40:05;6.85;;;6.25;;
10947;SDS011;5526;42.070;24.752;2022-10-16T01:42:39;6.05;;;5.55;;
10947;SDS011;5526;42.070;24.752;2022-10-16T01:45:12;6.25;;;5.65;;
10947;SDS011;5526;42.070;24.752;2022-10-16T01:47:45;6.95;;;6.25;;
10947;SDS011;5526;42.070;24.752;2022-10-16T01:50:13;7.30;;;6.50;;
10947;SDS011;5526;42.070;24.752;2022-10-16T01:52:45;6.13;;;5.63;;
10947;SDS011;5526;42.070;24.752;2022-10-16T01:55:17;7.00;;;6.30;;
10947;SDS011;5526;42.070;24.752;2022-10-16T01:57:51;7.45;;;6.75;;
10947;SDS011;5526;42.070;24.752;2022-10-16T02:00:21;6.68;;;6.07;;
10947;SDS011;5526;42.070;24.752;2022-10-16T02:02:51;6.47;;;5.97;;
10947;SDS011;5526;42.070;24.752;2022-10-16T02:05:23;6.68;;;6.15;;
10947;SDS011;5526;42.070;24.752;2022-10-16T02:07:53;7.70;;;6.88;;
10947;SDS011;5526;42.070;24.752;2022-10-16T02:10:21;7.32;;;6.72;;
10947;SDS011;5526;42.070;24.752;2022-10-16T02:12:53;8.98;;;8.07;;
10947;SDS011;5526;42.070;24.752;2022-10-16T02:15:26;13.45;;;10.25;;
10947;SDS011;5526;42.070;24.752;2022-10-16T02:17:54;16.70;;;12.85;;
10947;SDS011;5526;42.070;24.752;2022-10-16T02:20:22;8.23;;;7.43;;
10947;SDS011;5526;42.070;24.752;2022-10-16T02:22:54;11.50;;;10.23;;
10947;SDS011;5526;42.070;24.752;2022-10-16T02:25:24;16.70;;;13.35;;
10947;SDS011;5526;42.070;24.752;2022-10-16T02:28:00;8.48;;;7.38;;
10947;SDS011;5526;42.070;24.752;2022-10-16T02:30:32;7.43;;;6.70;;
10947;SDS011;5526;42.070;24.752;2022-10-16T02:33:03;7.10;;;6.40;;
10947;SDS011;5526;42.070;24.752;2022-10-16T02:35:35;7.65;;;6.95;;
10947;SDS011;5526;42.070;24.752;2022-10-16T02:38:03;7.47;;;6.82;;
10947;SDS011;5526;42.070;24.752;2022-10-16T02:40:32;7.60;;;6.88;;
10947;SDS011;5526;42.070;24.752;2022-10-16T02:43:03;7.28;;;6.57;;
10947;SDS011;5526;42.070;24.752;2022-10-16T02:45:31;8.00;;;7.20;;
10947;SDS011;5526;42.070;24.752;2022-10-16T02:48:01;7.15;;;6.55;;
10947;SDS011;5526;42.070;24.752;2022-10-16T02:50:29;8.18;;;7.38;;
10947;SDS011;5526;42.070;24.752;2022-10-16T02:52:57;7.75;;;7.15;;
10947;SDS011;5526;42.070;24.752;2022-10-16T02:55:24;7.90;;;7.10;;
10947;SDS011;5526;42.070;24.752;2022-10-16T02:57:53;10.95;;;9.82;;
10947;SDS011;5526;42.070;24.752;2022-10-16T03:00:22;9.95;;;8.95;;
10947;SDS011;5526;42.070;24.752;2022-10-16T03:02:49;8.88;;;8.07;;
10947;SDS011;5526;42.070;24.752;2022-10-16T03:05:17;8.18;;;7.38;;
10947;SDS011;5526;42.070;24.752;2022-10-16T03:07:44;8.35;;;7.60;;
10947;SDS011;5526;42.070;24.752;2022-10-16T03:10:12;8.23;;;7.43;;
10947;SDS011;5526;42.070;24.752;2022-10-16T03:12:40;7.80;;;6.90;;
10947;SDS011;5526;42.070;24.752;2022-10-16T03:15:07;8.38;;;7.60;;
10947;SDS011;5526;42.070;24.752;2022-10-16T03:17:37;9.05;;;7.05;;
10947;SDS011;5526;42.070;24.752;2022-10-16T03:20:05;8.40;;;7.60;;
10947;SDS011;5526;42.070;24.752;2022-10-16T03:22:33;8.07;;;7.38;;
10947;SDS011;5526;42.070;24.752;2022-10-16T03:25:00;8.40;;;7.70;;
10947;SDS011;5526;42.070;24.752;2022-10-16T03:27:28;9.43;;;8.13;;
10947;SDS011;5526;42.070;24.752;2022-10-16T03:29:56;9.30;;;8.35;;
10947;SDS011;5526;42.070;24.752;2022-10-16T03:32:24;9.50;;;8.60;;
10947;SDS011;5526;42.070;24.752;2022-10-16T03:34:53;10.00;;;9.00;;
10947;SDS011;5526;42.070;24.752;2022-10-16T03:37:22;9.10;;;8.20;;
10947;SDS011;5526;42.070;24.752;2022-10-16T03:39:50;9.00;;;7.90;;
10947;SDS011;5526;42.070;24.752;2022-10-16T03:42:17;8.50;;;7.65;;
10947;SDS011;5526;42.070;24.752;2022-10-16T03:44:45;9.13;;;8.23;;
10947;SDS011;5526;42.070;24.752;2022-10-16T03:47:12;7.72;;;7.10;;
10947;SDS011;5526;42.070;24.752;2022-10-16T03:49:40;8.35;;;7.47;;
10947;SDS011;5526;42.070;24.752;2022-10-16T03:52:09;7.88;;;7.20;;
10947;SDS011;5526;42.070;24.752;2022-10-16T03:54:37;7.60;;;6.90;;
10947;SDS011;5526;42.070;24.752;2022-10-16T03:57:04;8.10;;;6.93;;
10947;SDS011;5526;42.070;24.752;2022-10-16T03:59:32;7.40;;;6.68;;
10947;SDS011;5526;42.070;24.752;2022-10-16T04:01:59;10.55;;;9.27;;
10947;SDS011;5526;42.070;24.752;2022-10-16T04:04:27;8.13;;;7.43;;
10947;SDS011;5526;42.070;24.752;2022-10-16T04:06:55;7.43;;;6.72;;
10947;SDS011;5526;42.070;24.752;2022-10-16T04:09:25;7.95;;;7.15;;
10947;SDS011;5526;42.070;24.752;2022-10-16T04:11:52;9.68;;;7.47;;
10947;SDS011;5526;42.070;24.752;2022-10-16T04:14:20;8.02;;;7.22;;
10947;SDS011;5526;42.070;24.752;2022-10-16T04:16:47;8.27;;;7.53;;
10947;SDS011;5526;42.070;24.752;2022-10-16T04:19:15;8.73;;;7.38;;
10947;SDS011;5526;42.070;24.752;2022-10-16T04:21:43;8.82;;;8.00;;
10947;SDS011;5526;42.070;24.752;2022-10-16T04:24:11;8.73;;;7.93;;
10947;SDS011;5526;42.070;24.752;2022-10-16T04:26:40;8.57;;;7.90;;
10947;SDS011;5526;42.070;24.752;2022-10-16T04:29:08;8.63;;;7.82;;
10947;SDS011;5526;42.070;24.752;2022-10-16T04:31:35;8.82;;;7.93;;
10947;SDS011;5526;42.070;24.752;2022-10-16T04:34:03;16.65;;;15.07;;
10947;SDS011;5526;42.070;24.752;2022-10-16T04:36:31;16.35;;;14.68;;
10947;SDS011;5526;42.070;24.752;2022-10-16T04:38:58;13.15;;;11.85;;
10947;SDS011;5526;42.070;24.752;2022-10-16T04:41:25;12.98;;;11.80;;
10947;SDS011;5526;42.070;24.752;2022-10-16T04:43:55;10.73;;;9.77;;
10947;SDS011;5526;42.070;24.752;2022-10-16T04:46:23;10.05;;;8.70;;
10947;SDS011;5526;42.070;24.752;2022-10-16T04:48:50;9.32;;;8.43;;
10947;SDS011;5526;42.070;24.752;2022-10-16T04:51:19;8.02;;;7.32;;
10947;SDS011;5526;42.070;24.752;2022-10-16T04:53:47;10.57;;;9.57;;
10947;SDS011;5526;42.070;24.752;2022-10-16T04:56:14;10.93;;;9.82;;
10947;SDS011;5526;42.070;24.752;2022-10-16T04:58:42;9.57;;;8.65;;
10947;SDS011;5526;42.070;24.752;2022-10-16T05:01:11;9.68;;;8.63;;
10947;SDS011;5526;42.070;24.752;2022-10-16T05:03:38;10.32;;;8.80;;
10947;SDS011;5526;42.070;24.752;2022-10-16T05:06:06;12.30;;;9.27;;
10947;SDS011;5526;42.070;24.752;2022-10-16T05:08:34;9.45;;;8.65;;
10947;SDS011;5526;42.070;24.752;2022-10-16T05:11:01;10.75;;;9.85;;
10947;SDS011;5526;42.070;24.752;2022-10-16T05:13:29;11.75;;;10.10;;
10947;SDS011;5526;42.070;24.752;2022-10-16T05:15:57;10.13;;;9.20;;
10947;SDS011;5526;42.070;24.752;2022-10-16T05:18:26;11.25;;;9.68;;
10947;SDS011;5526;42.070;24.752;2022-10-16T05:20:54;11.43;;;9.48;;
10947;SDS011;5526;42.070;24.752;2022-10-16T05:23:21;10.85;;;9.80;;
10947;SDS011;5526;42.070;24.752;2022-10-16T05:25:52;11.23;;;10.10;;
10947;SDS011;5526;42.070;24.752;2022-10-16T05:28:23;11.65;;;10.43;;
10947;SDS011;5526;42.070;24.752;2022-10-16T05:30:51;11.73;;;10.43;;
10947;SDS011;5526;42.070;24.752;2022-10-16T05:33:19;11.45;;;10.30;;
10947;SDS011;5526;42.070;24.752;2022-10-16T05:35:48;11.07;;;9.88;;
10947;SDS011;5526;42.070;24.752;2022-10-16T05:38:16;10.88;;;9.68;;
10947;SDS011;5526;42.070;24.752;2022-10-16T05:40:50;12.45;;;10.43;;
10947;SDS011;5526;42.070;24.752;2022-10-16T05:43:18;11.77;;;10.63;;
10947;SDS011;5526;42.070;24.752;2022-10-16T05:45:53;11.77;;;10.52;;
10947;SDS011;5526;42.070;24.752;2022-10-16T05:48:21;11.05;;;9.95;;
10947;SDS011;5526;42.070;24.752;2022-10-16T05:50:57;11.93;;;10.38;;
10947;SDS011;5526;42.070;24.752;2022-10-16T05:53:26;10.27;;;9.27;;
10947;SDS011;5526;42.070;24.752;2022-10-16T05:55:54;9.63;;;8.70;;
10947;SDS011;5526;42.070;24.752;2022-10-16T05:58:22;8.65;;;7.75;;
10947;SDS011;5526;42.070;24.752;2022-10-16T06:00:54;8.82;;;7.80;;
10947;SDS011;5526;42.070;24.752;2022-10-16T06:03:23;8.98;;;8.07;;
10947;SDS011;5526;42.070;24.752;2022-10-16T06:05:50;8.63;;;7.80;;
10947;SDS011;5526;42.070;24.752;2022-10-16T06:08:22;8.93;;;7.97;;
10947;SDS011;5526;42.070;24.752;2022-10-16T06:10:59;8.63;;;7.82;;
10947;SDS011;5526;42.070;24.752;2022-10-16T06:13:28;8.55;;;7.75;;
10947;SDS011;5526;42.070;24.752;2022-10-16T06:15:56;10.38;;;8.93;;
10947;SDS011;5526;42.070;24.752;2022-10-16T06:18:25;9.18;;;8.38;;
10947;SDS011;5526;42.070;24.752;2022-10-16T06:20:53;11.10;;;8.55;;
10947;SDS011;5526;42.070;24.752;2022-10-16T06:23:22;10.23;;;9.23;;
10947;SDS011;5526;42.070;24.752;2022-10-16T06:25:50;10.57;;;9.55;;
10947;SDS011;5526;42.070;24.752;2022-10-16T06:28:18;9.80;;;8.82;;
10947;SDS011;5526;42.070;24.752;2022-10-16T06:30:45;9.73;;;8.82;;
10947;SDS011;5526;42.070;24.752;2022-10-16T06:33:13;10.82;;;8.55;;
10947;SDS011;5526;42.070;24.752;2022-10-16T06:35:41;11.20;;;8.35;;
10947;SDS011;5526;42.070;24.752;2022-10-16T06:38:08;9.60;;;8.70;;
10947;SDS011;5526;42.070;24.752;2022-10-16T06:40:37;9.00;;;8.20;;
10947;SDS011;5526;42.070;24.752;2022-10-16T06:43:05;7.88;;;7.22;;
10947;SDS011;5526;42.070;24.752;2022-10-16T06:45:32;8.27;;;7.57;;
10947;SDS011;5526;42.070;24.752;2022-10-16T06:48:00;8.32;;;7.40;;
10947;SDS011;5526;42.070;24.752;2022-10-16T06:50:27;8.60;;;7.18;;
10947;SDS011;5526;42.070;24.752;2022-10-16T06:52:55;8.98;;;8.18;;
10947;SDS011;5526;42.070;24.752;2022-10-16T06:55:23;8.82;;;7.78;;
10947;SDS011;5526;42.070;24.752;2022-10-16T06:57:52;9.10;;;8.25;;
10947;SDS011;5526;42.070;24.752;2022-10-16T07:00:20;8.77;;;7.30;;
10947;SDS011;5526;42.070;24.752;2022-10-16T07:02:47;8.30;;;7.60;;
10947;SDS011;5526;42.070;24.752;2022-10-16T07:05:16;9.02;;;7.90;;
10947;SDS011;5526;42.070;24.752;2022-10-16T07:07:43;8.50;;;7.70;;
10947;SDS011;5526;42.070;24.752;2022-10-16T07:10:11;9.13;;;8.20;;
10947;SDS011;5526;42.070;24.752;2022-10-16T07:12:39;9.55;;;7.88;;
10947;SDS011;5526;42.070;24.752;2022-10-16T07:15:08;9.60;;;7.68;;
10947;SDS011;5526;42.070;24.752;2022-10-16T07:17:37;10.50;;;8.23;;
10947;SDS011;5526;42.070;24.752;2022-10-16T07:20:05;8.68;;;7.78;;
10947;SDS011;5526;42.070;24.752;2022-10-16T07:22:34;9.38;;;7.72;;
10947;SDS011;5526;42.070;24.752;2022-10-16T07:25:02;8.75;;;7.80;;
10947;SDS011;5526;42.070;24.752;2022-10-16T07:27:30;8.20;;;7.45;;
10947;SDS011;5526;42.070;24.752;2022-10-16T07:29:57;8.02;;;7.22;;
10947;SDS011;5526;42.070;24.752;2022-10-16T07:32:26;7.75;;;6.68;;
10947;SDS011;5526;42.070;24.752;2022-10-16T07:34:54;7.93;;;7.28;;
10947;SDS011;5526;42.070;24.752;2022-10-16T07:37:22;8.45;;;7.55;;
10947;SDS011;5526;42.070;24.752;2022-10-16T07:39:49;7.90;;;7.22;;
10947;SDS011;5526;42.070;24.752;2022-10-16T07:42:17;8.75;;;7.75;;
10947;SDS011;5526;42.070;24.752;2022-10-16T07:44:45;8.65;;;7.95;;
10947;SDS011;5526;42.070;24.752;2022-10-16T07:47:12;9.43;;;8.27;;
10947;SDS011;5526;42.070;24.752;2022-10-16T07:49:41;10.38;;;9.13;;
10947;SDS011;5526;42.070;24.752;2022-10-16T07:52:09;8.75;;;7.75;;
10947;SDS011;5526;42.070;24.752;2022-10-16T07:54:37;8.23;;;7.43;;
10947;SDS011;5526;42.070;24.752;2022-10-16T07:57:04;9.18;;;8.05;;
10947;SDS011;5526;42.070;24.752;2022-10-16T07:59:32;8.10;;;7.30;;
10947;SDS011;5526;42.070;24.752;2022-10-16T08:02:00;7.93;;;7.15;;
10947;SDS011;5526;42.070;24.752;2022-10-16T08:04:28;9.15;;;7.57;;
10947;SDS011;5526;42.070;24.752;2022-10-16T08:06:57;8.57;;;7.03;;
10947;SDS011;5526;42.070;24.752;2022-10-16T08:09:25;8.45;;;6.97;;
10947;SDS011;5526;42.070;24.752;2022-10-16T08:11:52;7.35;;;6.57;;
10947;SDS011;5526;42.070;24.752;2022-10-16T08:14:20;7.22;;;6.63;;
10947;SDS011;5526;42.070;24.752;2022-10-16T08:16:48;7.90;;;6.85;;
10947;SDS011;5526;42.070;24.752;2022-10-16T08:19:16;6.72;;;6.10;;
10947;SDS011;5526;42.070;24.752;2022-10-16T08:21:46;8.05;;;6.20;;
10947;SDS011;5526;42.070;24.752;2022-10-16T08:24:15;6.70;;;5.97;;
10947;SDS011;5526;42.070;24.752;2022-10-16T08:26:43;8.07;;;6.38;;
10947;SDS011;5526;42.070;24.752;2022-10-16T08:29:11;6.28;;;5.70;;
10947;SDS011;5526;42.070;24.752;2022-10-16T08:31:40;6.88;;;6.20;;
10947;SDS011;5526;42.070;24.752;2022-10-16T08:34:07;6.40;;;5.80;;
10947;SDS011;5526;42.070;24.752;2022-10-16T08:36:35;6.80;;;6.28;;
10947;SDS011;5526;42.070;24.752;2022-10-16T08:39:03;7.00;;;6.35;;
10947;SDS011;5526;42.070;24.752;2022-10-16T08:41:56;7.22;;;5.90;;
10947;SDS011;5526;42.070;24.752;2022-10-16T08:44:49;8.68;;;5.95;;
10947;SDS011;5526;42.070;24.752;2022-10-16T08:47:39;6.95;;;5.95;;
10947;SDS011;5526;42.070;24.752;2022-10-16T08:50:18;6.65;;;5.90;;
10947;SDS011;5526;42.070;24.752;2022-10-16T08:52:50;8.98;;;6.28;;
10947;SDS011;5526;42.070;24.752;2022-10-16T08:58:12;6.13;;;5.30;;
10947;SDS011;5526;42.070;24.752;2022-10-16T09:00:42;7.63;;;5.55;;
10947;SDS011;5526;42.070;24.752;2022-10-16T09:03:16;7.18;;;5.47;;
10947;SDS011;5526;42.070;24.752;2022-10-16T09:06:02;7.25;;;5.85;;
10947;SDS011;5526;42.070;24.752;2022-10-16T09:08:53;6.10;;;5.50;;
10947;SDS011;5526;42.070;24.752;2022-10-16T09:11:36;6.97;;;6.38;;
10947;SDS011;5526;42.070;24.752;2022-10-16T09:14:18;5.38;;;4.95;;
10947;SDS011;5526;42.070;24.752;2022-10-16T09:17:04;6.03;;;5.30;;
10947;SDS011;5526;42.070;24.752;2022-10-16T09:19:45;5.70;;;5.18;;
10947;SDS011;5526;42.070;24.752;2022-10-16T09:22:17;8.98;;;5.40;;
10947;SDS011;5526;42.070;24.752;2022-10-16T09:24:47;5.60;;;4.80;;
10947;SDS011;5526;42.070;24.752;2022-10-16T09:27:15;8.10;;;5.30;;
10947;SDS011;5526;42.070;24.752;2022-10-16T09:29:45;5.57;;;5.07;;
10947;SDS011;5526;42.070;24.752;2022-10-16T09:32:14;7.13;;;5.30;;
10947;SDS011;5526;42.070;24.752;2022-10-16T09:34:45;5.70;;;5.10;;
10947;SDS011;5526;42.070;24.752;2022-10-16T09:37:18;5.20;;;4.70;;
10947;SDS011;5526;42.070;24.752;2022-10-16T09:39:48;8.15;;;4.93;;
10947;SDS011;5526;42.070;24.752;2022-10-16T09:42:17;6.30;;;5.70;;
10947;SDS011;5526;42.070;24.752;2022-10-16T09:44:48;5.13;;;4.10;;
10947;SDS011;5526;42.070;24.752;2022-10-16T09:47:19;4.53;;;4.22;;
10947;SDS011;5526;42.070;24.752;2022-10-16T09:49:53;4.32;;;4.03;;
10947;SDS011;5526;42.070;24.752;2022-10-16T09:52:23;5.07;;;4.68;;
10947;SDS011;5526;42.070;24.752;2022-10-16T09:54:51;4.60;;;4.20;;
10947;SDS011;5526;42.070;24.752;2022-10-16T09:57:20;4.75;;;4.03;;
10947;SDS011;5526;42.070;24.752;2022-10-16T09:59:50;6.28;;;4.60;;
10947;SDS011;5526;42.070;24.752;2022-10-16T10:02:20;4.90;;;4.40;;
10947;SDS011;5526;42.070;24.752;2022-10-16T10:04:55;4.35;;;4.03;;
10947;SDS011;5526;42.070;24.752;2022-10-16T10:07:24;8.55;;;4.50;;
10947;SDS011;5526;42.070;24.752;2022-10-16T10:09:53;4.82;;;4.50;;
10947;SDS011;5526;42.070;24.752;2022-10-16T10:12:23;5.97;;;4.35;;
10947;SDS011;5526;42.070;24.752;2022-10-16T10:14:54;5.25;;;4.75;;
10947;SDS011;5526;42.070;24.752;2022-10-16T10:17:24;5.18;;;4.65;;
10947;SDS011;5526;42.070;24.752;2022-10-16T10:19:54;5.90;;;4.20;;
10947;SDS011;5526;42.070;24.752;2022-10-16T10:22:29;4.85;;;4.40;;
10947;SDS011;5526;42.070;24.752;2022-10-16T10:25:10;4.82;;;4.38;;
10947;SDS011;5526;42.070;24.752;2022-10-16T10:27:51;4.82;;;4.43;;
10947;SDS011;5526;42.070;24.752;2022-10-16T10:30:32;4.40;;;4.00;;
10947;SDS011;5526;42.070;24.752;2022-10-16T10:33:11;4.55;;;3.97;;
10947;SDS011;5526;42.070;24.752;2022-10-16T10:35:48;4.20;;;3.90;;
10947;SDS011;5526;42.070;24.752;2022-10-16T10:38:31;15.48;;;5.20;;
10947;SDS011;5526;42.070;24.752;2022-10-16T10:41:13;6.88;;;5.00;;
10947;SDS011;5526;42.070;24.752;2022-10-16T10:43:54;4.22;;;3.92;;
10947;SDS011;5526;42.070;24.752;2022-10-16T10:46:31;4.45;;;4.03;;
10947;SDS011;5526;42.070;24.752;2022-10-16T10:51:56;4.93;;;4.28;;
10947;SDS011;5526;42.070;24.752;2022-10-16T10:54:35;5.40;;;4.13;;
10947;SDS011;5526;42.070;24.752;2022-10-16T10:57:14;5.72;;;4.10;;
10947;SDS011;5526;42.070;24.752;2022-10-16T11:00:00;4.32;;;3.92;;
10947;SDS011;5526;42.070;24.752;2022-10-16T11:02:44;5.68;;;3.65;;
10947;SDS011;5526;42.070;24.752;2022-10-16T11:08:11;4.15;;;3.85;;
10947;SDS011;5526;42.070;24.752;2022-10-16T11:10:49;4.45;;;4.05;;
10947;SDS011;5526;42.070;24.752;2022-10-16T11:13:24;4.30;;;3.90;;
10947;SDS011;5526;42.070;24.752;2022-10-16T11:15:58;5.68;;;4.55;;
10947;SDS011;5526;42.070;24.752;2022-10-16T11:18:32;4.10;;;3.70;;
10947;SDS011;5526;42.070;24.752;2022-10-16T11:21:08;4.05;;;3.75;;
10947;SDS011;5526;42.070;24.752;2022-10-16T11:23:40;3.97;;;3.60;;
10947;SDS011;5526;42.070;24.752;2022-10-16T11:26:15;4.35;;;4.05;;
10947;SDS011;5526;42.070;24.752;2022-10-16T11:28:47;4.30;;;3.90;;
10947;SDS011;5526;42.070;24.752;2022-10-16T11:31:19;4.78;;;4.45;;
10947;SDS011;5526;42.070;24.752;2022-10-16T11:33:57;4.50;;;4.10;;
10947;SDS011;5526;42.070;24.752;2022-10-16T11:36:32;4.43;;;3.92;;
10947;SDS011;5526;42.070;24.752;2022-10-16T11:39:08;3.85;;;3.55;;
10947;SDS011;5526;42.070;24.752;2022-10-16T11:41:46;3.70;;;3.40;;
10947;SDS011;5526;42.070;24.752;2022-10-16T11:44:19;3.88;;;3.67;;
10947;SDS011;5526;42.070;24.752;2022-10-16T11:47:01;6.38;;;3.85;;
10947;SDS011;5526;42.070;24.752;2022-10-16T11:49:37;4.60;;;4.20;;
10947;SDS011;5526;42.070;24.752;2022-10-16T11:52:07;4.55;;;4.25;;
10947;SDS011;5526;42.070;24.752;2022-10-16T11:54:45;3.88;;;3.47;;
10947;SDS011;5526;42.070;24.752;2022-10-16T11:57:19;4.20;;;3.70;;
10947;SDS011;5526;42.070;24.752;2022-10-16T11:59:51;5.13;;;4.00;;
10947;SDS011;5526;42.070;24.752;2022-10-16T12:02:28;4.13;;;3.72;;
10947;SDS011;5526;42.070;24.752;2022-10-16T12:05:06;4.20;;;3.70;;
10947;SDS011;5526;42.070;24.752;2022-10-16T12:07:46;7.03;;;3.60;;
10947;SDS011;5526;42.070;24.752;2022-10-16T12:10:20;4.22;;;3.83;;
10947;SDS011;5526;42.070;24.752;2022-10-16T12:12:50;4.47;;;4.07;;
10947;SDS011;5526;42.070;24.752;2022-10-16T12:15:19;4.57;;;4.18;;
10947;SDS011;5526;42.070;24.752;2022-10-16T12:17:49;4.03;;;3.72;;
10947;SDS011;5526;42.070;24.752;2022-10-16T12:20:27;5.80;;;3.80;;
10947;SDS011;5526;42.070;24.752;2022-10-16T12:22:58;4.03;;;3.72;;
10947;SDS011;5526;42.070;24.752;2022-10-16T12:25:29;10.38;;;4.32;;
10947;SDS011;5526;42.070;24.752;2022-10-16T12:28:02;5.43;;;4.00;;
10947;SDS011;5526;42.070;24.752;2022-10-16T12:30:32;4.40;;;3.70;;
10947;SDS011;5526;42.070;24.752;2022-10-16T12:33:02;4.07;;;3.67;;
10947;SDS011;5526;42.070;24.752;2022-10-16T12:35:33;4.07;;;3.78;;
10947;SDS011;5526;42.070;24.752;2022-10-16T12:38:15;4.07;;;3.63;;
10947;SDS011;5526;42.070;24.752;2022-10-16T12:40:45;4.38;;;3.92;;
10947;SDS011;5526;42.070;24.752;2022-10-16T12:43:28;4.10;;;3.80;;
10947;SDS011;5526;42.070;24.752;2022-10-16T12:46:05;4.22;;;3.83;;
10947;SDS011;5526;42.070;24.752;2022-10-16T12:48:48;4.00;;;3.22;;
10947;SDS011;5526;42.070;24.752;2022-10-16T12:51:24;3.75;;;3.45;;
10947;SDS011;5526;42.070;24.752;2022-10-16T12:54:00;3.63;;;3.33;;
10947;SDS011;5526;42.070;24.752;2022-10-16T12:56:33;4.18;;;3.75;;
10947;SDS011;5526;42.070;24.752;2022-10-16T12:59:10;3.88;;;3.58;;
10947;SDS011;5526;42.070;24.752;2022-10-16T13:01:55;3.97;;;3.67;;
10947;SDS011;5526;42.070;24.752;2022-10-16T13:04:43;4.00;;;3.60;;
10947;SDS011;5526;42.070;24.752;2022-10-16T13:07:32;4.07;;;3.67;;
10947;SDS011;5526;42.070;24.752;2022-10-16T13:10:14;4.05;;;3.67;;
10947;SDS011;5526;42.070;24.752;2022-10-16T13:12:57;4.13;;;3.83;;
10947;SDS011;5526;42.070;24.752;2022-10-16T13:18:33;4.53;;;4.10;;
10947;SDS011;5526;42.070;24.752;2022-10-16T13:21:16;6.55;;;4.43;;
10947;SDS011;5526;42.070;24.752;2022-10-16T13:23:55;8.95;;;4.63;;
10947;SDS011;5526;42.070;24.752;2022-10-16T13:26:31;4.45;;;4.05;;
10947;SDS011;5526;42.070;24.752;2022-10-16T13:29:06;6.53;;;3.80;;
10947;SDS011;5526;42.070;24.752;2022-10-16T13:31:36;4.75;;;4.20;;
10947;SDS011;5526;42.070;24.752;2022-10-16T13:34:06;5.50;;;4.10;;
10947;SDS011;5526;42.070;24.752;2022-10-16T13:36:44;4.28;;;3.88;;
10947;SDS011;5526;42.070;24.752;2022-10-16T13:39:21;4.75;;;3.90;;
10947;SDS011;5526;42.070;24.752;2022-10-16T13:42:03;4.63;;;3.80;;
10947;SDS011;5526;42.070;24.752;2022-10-16T13:44:35;4.10;;;3.80;;
10947;SDS011;5526;42.070;24.752;2022-10-16T13:47:15;4.10;;;3.80;;
10947;SDS011;5526;42.070;24.752;2022-10-16T13:49:44;7.55;;;4.20;;
10947;SDS011;5526;42.070;24.752;2022-10-16T13:52:16;4.47;;;4.05;;
10947;SDS011;5526;42.070;24.752;2022-10-16T13:54:46;4.28;;;3.58;;
10947;SDS011;5526;42.070;24.752;2022-10-16T13:57:15;4.63;;;4.10;;
10947;SDS011;5526;42.070;24.752;2022-10-16T13:59:43;6.10;;;4.18;;
10947;SDS011;5526;42.070;24.752;2022-10-16T14:02:22;6.32;;;4.05;;
10947;SDS011;5526;42.070;24.752;2022-10-16T14:04:53;4.35;;;3.95;;
10947;SDS011;5526;42.070;24.752;2022-10-16T14:07:24;3.85;;;3.55;;
10947;SDS011;5526;42.070;24.752;2022-10-16T14:09:55;4.22;;;3.83;;
10947;SDS011;5526;42.070;24.752;2022-10-16T14:12:26;4.25;;;3.67;;
10947;SDS011;5526;42.070;24.752;2022-10-16T14:14:55;4.25;;;3.83;;
10947;SDS011;5526;42.070;24.752;2022-10-16T14:17:24;4.38;;;3.45;;
10947;SDS011;5526;42.070;24.752;2022-10-16T14:19:54;5.00;;;4.53;;
10947;SDS011;5526;42.070;24.752;2022-10-16T14:22:27;4.82;;;4.00;;
10947;SDS011;5526;42.070;24.752;2022-10-16T14:24:59;4.40;;;4.03;;
10947;SDS011;5526;42.070;24.752;2022-10-16T14:27:29;3.95;;;3.63;;
10947;SDS011;5526;42.070;24.752;2022-10-16T14:30:08;4.22;;;3.83;;
10947;SDS011;5526;42.070;24.752;2022-10-16T14:32:41;11.02;;;4.90;;
10947;SDS011;5526;42.070;24.752;2022-10-16T14:35:22;6.68;;;4.03;;
10947;SDS011;5526;42.070;24.752;2022-10-16T14:37:52;10.05;;;4.35;;
10947;SDS011;5526;42.070;24.752;2022-10-16T14:40:22;10.15;;;4.50;;
10947;SDS011;5526;42.070;24.752;2022-10-16T14:42:52;4.95;;;4.22;;
10947;SDS011;5526;42.070;24.752;2022-10-16T14:45:20;12.50;;;5.15;;
10947;SDS011;5526;42.070;24.752;2022-10-16T14:47:50;10.57;;;4.88;;
10947;SDS011;5526;42.070;24.752;2022-10-16T14:50:21;10.38;;;5.00;;
10947;SDS011;5526;42.070;24.752;2022-10-16T14:52:49;8.77;;;5.28;;
10947;SDS011;5526;42.070;24.752;2022-10-16T14:55:16;6.80;;;4.43;;
10947;SDS011;5526;42.070;24.752;2022-10-16T14:57:46;8.43;;;4.35;;
10947;SDS011;5526;42.070;24.752;2022-10-16T15:00:15;9.85;;;4.63;;
10947;SDS011;5526;42.070;24.752;2022-10-16T15:02:45;9.50;;;4.20;;
10947;SDS011;5526;42.070;24.752;2022-10-16T15:05:15;8.85;;;4.05;;
10947;SDS011;5526;42.070;24.752;2022-10-16T15:07:44;9.18;;;6.20;;
10947;SDS011;5526;42.070;24.752;2022-10-16T15:10:14;11.05;;;8.65;;
10947;SDS011;5526;42.070;24.752;2022-10-16T15:12:43;14.90;;;9.55;;
10947;SDS011;5526;42.070;24.752;2022-10-16T15:15:28;11.85;;;7.13;;
10947;SDS011;5526;42.070;24.752;2022-10-16T15:18:00;8.02;;;5.50;;
10947;SDS011;5526;42.070;24.752;2022-10-16T15:20:28;7.47;;;5.43;;
10947;SDS011;5526;42.070;24.752;2022-10-16T15:22:59;8.35;;;5.90;;